createdAt,value
2023-04-11T00:01:05.003Z,93
2023-04-11T00:16:06.068Z,108
2023-04-11T00:31:05.833Z,59
2023-04-11T00:46:05.662Z,77
2023-04-11T01:01:05.239Z,156
2023-04-11T01:16:05.182Z,125
2023-04-11T01:31:05.848Z,167
2023-04-11T01:46:05.333Z,192
2023-04-11T02:01:05.776Z,219
2023-04-11T02:16:05.067Z,164
2023-04-11T02:31:06.241Z,161
2023-04-11T02:46:13.528Z,177
2023-04-11T03:01:05.102Z,206
2023-04-11T03:16:05.605Z,197
2023-04-11T03:31:05.127Z,252
2023-04-11T03:46:05.209Z,246
2023-04-11T04:01:05.822Z,276
2023-04-11T04:16:05.438Z,220
2023-04-11T04:31:05.316Z,212
2023-04-11T04:46:05.195Z,167
2023-04-11T05:01:05.317Z,111
2023-04-11T05:16:05.053Z,100
2023-04-11T05:31:05.418Z,86
2023-04-11T05:46:05.725Z,77
2023-04-11T06:01:06.539Z,61
2023-04-11T06:16:06.258Z,36
2023-04-11T06:31:05.486Z,37
2023-04-11T06:46:05.675Z,42
2023-04-11T07:01:05.742Z,40
2023-04-11T07:16:05.535Z,35
2023-04-11T07:31:05.556Z,24
2023-04-11T07:46:06.100Z,19
2023-04-11T08:01:06.154Z,16
2023-04-11T08:16:05.761Z,14
2023-04-11T08:31:05.075Z,14
2023-04-11T08:46:06.375Z,11
2023-04-11T09:01:05.671Z,8
2023-04-11T09:16:05.717Z,10
2023-04-11T09:31:05.131Z,9
2023-04-11T09:46:06.240Z,10
2023-04-11T10:01:05.868Z,10
2023-04-11T10:16:05.196Z,12
2023-04-11T10:31:05.509Z,9
2023-04-11T10:46:06.125Z,9
2023-04-11T11:01:06.022Z,11
2023-04-11T11:16:05.747Z,10
2023-04-11T11:31:05.047Z,11
2023-04-11T11:46:08.563Z,11
2023-04-11T12:01:05.560Z,11
2023-04-11T12:16:05.580Z,11
2023-04-11T12:31:05.405Z,11
2023-04-11T12:46:06.091Z,13
2023-04-11T13:01:05.623Z,12
2023-04-11T13:16:05.127Z,11
2023-04-11T13:31:05.850Z,11
2023-04-11T13:46:05.602Z,11
2023-04-11T14:01:05.247Z,16
2023-04-11T14:16:09.895Z,13
2023-04-11T14:31:05.551Z,21
2023-04-11T14:46:05.928Z,13
2023-04-11T15:01:05.544Z,26
2023-04-11T15:16:05.704Z,26
2023-04-11T15:31:05.345Z,30
2023-04-11T15:46:05.536Z,36
2023-04-11T16:01:05.141Z,33
2023-04-11T16:16:05.065Z,41
2023-04-11T16:31:05.904Z,22
2023-04-11T16:46:05.849Z,40
2023-04-11T17:01:05.701Z,28
2023-04-11T17:16:05.427Z,26
2023-04-11T17:31:05.156Z,22
2023-04-11T18:01:05.293Z,16
2023-04-11T18:16:05.656Z,18
2023-04-11T18:31:05.719Z,14
2023-04-11T18:46:05.774Z,12
2023-04-11T19:01:17.161Z,20
2023-04-11T19:16:05.233Z,20
2023-04-11T19:31:04.869Z,31
2023-04-11T19:46:05.797Z,36
2023-04-11T20:01:05.133Z,33
2023-04-11T20:16:05.655Z,40
2023-04-11T20:31:05.582Z,28
2023-04-11T20:46:04.996Z,32
2023-04-11T21:01:05.788Z,25
2023-04-11T21:16:05.977Z,20
2023-04-11T21:31:05.722Z,18
2023-04-11T21:46:05.151Z,18
2023-04-11T22:01:07.912Z,16
2023-04-11T22:16:06.239Z,24
2023-04-11T22:31:04.921Z,24
2023-04-11T22:46:06.873Z,19
2023-04-11T23:01:07.541Z,13
2023-04-11T23:16:04.938Z,15
2023-04-11T23:31:06.235Z,20
2023-04-11T23:46:05.914Z,19
